Time;durP1;ratioP1;P1;durP2;ratioP2;P2;SDS_P1;SDS_P2;PMS_P1;PMS_P2;Temp;Humidity;BMP_temperature;BMP_pressure;BME280_temperature;BME280_humidity;BME280_pressure;Samples;Min_cycle;Max_cycle;Signal;HPM_P1;HPM_P2
2021/09/12 00:01:03;;;;;;;6.03;4.70;;;22.40;99.90;;;22.62;59.85;101411.25;5014435;27;96699;-50
2021/09/12 00:03:30;;;;;;;2.37;2.17;;;22.40;99.90;;;22.62;59.86;101413.94;5016806;27;96927;-47
2021/09/12 00:05:56;;;;;;;2.70;2.50;;;22.40;99.90;;;22.64;59.83;101413.81;5012679;27;97833;-53
2021/09/12 00:08:22;;;;;;;3.03;2.73;;;22.40;99.90;;;22.64;59.77;101414.66;5018415;27;98558;-49
2021/09/12 00:10:49;;;;;;;3.57;3.27;;;22.40;99.90;;;22.64;59.87;101414.66;5027579;27;97553;-49
2021/09/12 00:13:14;;;;;;;2.53;2.33;;;22.40;99.90;;;22.63;59.84;101418.34;5017511;27;99549;-51
2021/09/12 00:15:40;;;;;;;5.77;4.53;;;22.40;99.90;;;22.62;60.12;101408.56;5032437;27;96919;-49
2021/09/12 00:18:06;;;;;;;4.93;3.90;;;22.40;99.90;;;22.61;59.93;101403.28;5021402;27;98293;-46
2021/09/12 00:20:32;;;;;;;5.47;4.63;;;22.40;99.90;;;22.59;60.05;101410.63;5019449;27;99515;-50
2021/09/12 00:22:58;;;;;;;7.93;5.03;;;22.30;99.90;;;22.57;60.14;101413.44;5018714;27;97832;-48
2021/09/12 00:25:24;;;;;;;7.43;5.33;;;22.30;99.90;;;22.55;60.27;101404.59;5017187;27;99366;-48
2021/09/12 00:27:50;;;;;;;3.80;2.93;;;22.30;99.90;;;22.53;60.33;101411.91;5010790;27;99397;-47
2021/09/12 00:30:16;;;;;;;4.40;3.93;;;22.20;99.90;;;22.51;60.36;101406.66;5019739;27;97934;-46
2021/09/12 00:32:42;;;;;;;5.80;4.90;;;22.20;99.90;;;22.49;60.33;101395.16;5013543;27;102572;-50
2021/09/12 00:35:09;;;;;;;5.50;5.00;;;22.20;99.90;;;22.50;60.49;101398.72;5018094;27;99384;-48
2021/09/12 00:37:39;;;;;;;5.70;5.13;;;22.20;99.90;;;22.50;60.53;101396.03;5016606;27;98736;-50
2021/09/12 00:40:08;;;;;;;5.60;4.50;;;22.20;99.90;;;22.49;60.39;101400.53;5012604;27;97704;-46
2021/09/12 00:42:34;;;;;;;3.50;3.07;;;22.20;99.90;;;22.51;60.30;101397.72;5016352;27;98775;-51
2021/09/12 00:45:00;;;;;;;4.33;3.93;;;22.20;99.90;;;22.50;60.44;101399.56;5013529;27;100197;-45
2021/09/12 00:47:26;;;;;;;5.80;4.77;;;22.20;99.90;;;22.51;60.44;101395.03;5017290;27;98562;-46
2021/09/12 00:49:52;;;;;;;5.10;4.20;;;22.20;99.90;;;22.50;60.35;101396.03;5031028;27;98285;-48
2021/09/12 00:52:19;;;;;;;2.53;2.33;;;22.20;99.90;;;22.51;60.31;101392.34;5017850;27;99693;-50
2021/09/12 00:54:47;;;;;;;1.73;1.63;;;22.20;99.90;;;22.50;60.28;101391.50;5014944;27;99321;-48
2021/09/12 00:57:13;;;;;;;1.90;1.80;;;22.20;99.90;;;22.52;60.31;101388.69;5003885;27;99450;-49
2021/09/12 00:59:41;;;;;;;4.27;3.50;;;22.20;99.90;;;22.52;60.38;101394.06;5015685;27;100051;-47
2021/09/12 01:02:10;;;;;;;7.37;5.30;;;22.20;99.90;;;22.52;60.43;101394.06;5019521;27;100612;-47
2021/09/12 01:04:37;;;;;;;3.47;2.60;;;22.20;99.90;;;22.52;60.30;101394.06;5023253;27;96937;-47
2021/09/12 01:07:07;;;;;;;2.07;1.87;;;22.20;99.90;;;22.53;60.19;101390.41;5018215;27;99403;-48
2021/09/12 01:09:35;;;;;;;2.20;2.00;;;22.30;99.90;;;22.54;60.28;101386.75;5017583;27;97353;-47
2021/09/12 01:12:02;;;;;;;2.60;2.40;;;22.30;99.90;;;22.55;60.33;101393.84;5017160;27;104858;-45
2021/09/12 01:14:31;;;;;;;2.77;2.47;;;22.30;99.90;;;22.56;60.24;101392.88;5013531;27;98581;-48
2021/09/12 01:16:58;;;;;;;2.23;2.03;;;22.30;99.90;;;22.59;60.14;101394.50;5014057;27;97719;-49
2021/09/12 01:19:24;;;;;;;1.90;1.80;;;22.30;99.90;;;22.59;60.10;101389.97;5021848;27;97384;-47
2021/09/12 01:22:03;;;;;;;1.97;1.87;;;22.30;99.90;;;22.62;60.02;101395.13;5016582;27;99173;-50
2021/09/12 01:24:31;;;;;;;2.20;1.90;;;22.40;99.90;;;22.61;59.96;101388.03;5019790;27;99306;-47
2021/09/12 01:26:58;;;;;;;1.90;1.80;;;22.40;99.90;;;22.62;59.98;101387.03;5027445;27;97056;-48
2021/09/12 01:29:24;;;;;;;1.93;1.73;;;22.40;99.90;;;22.63;59.83;101380.69;5018811;27;99202;-47
2021/09/12 01:31:50;;;;;;;1.70;1.60;;;22.40;99.90;;;22.64;59.87;101371.66;5021108;27;97748;-49
2021/09/12 01:34:16;;;;;;;2.10;1.90;;;22.40;99.90;;;22.64;59.93;101371.66;5020957;27;98971;-47
2021/09/12 01:36:43;;;;;;;2.00;1.80;;;22.40;99.90;;;22.64;59.84;101366.28;5018205;27;98234;-45
2021/09/12 01:39:09;;;;;;;1.67;1.57;;;22.40;99.90;;;22.65;59.83;101362.63;5022016;27;97441;-47
2021/09/12 01:41:35;;;;;;;1.90;1.80;;;22.40;99.90;;;22.67;59.78;101357.13;5020502;27;99570;-46
2021/09/12 01:44:04;;;;;;;2.07;1.83;;;22.40;99.90;;;22.69;59.84;101357.84;5017743;27;105474;-47
2021/09/12 01:46:31;;;;;;;2.20;2.00;;;22.50;99.90;;;22.69;59.62;101353.34;5019110;27;98036;-48
2021/09/12 01:49:01;;;;;;;3.57;3.13;;;22.50;99.90;;;22.68;59.92;101357.00;5017535;27;99048;-47
2021/09/12 01:51:27;;;;;;;2.00;1.90;;;22.50;99.90;;;22.67;59.72;101357.97;5018345;27;100595;-45
2021/09/12 01:53:54;;;;;;;2.13;1.90;;;22.40;99.90;;;22.67;59.82;101349.91;5019282;27;97318;-51
2021/09/12 01:56:20;;;;;;;2.27;2.07;;;22.40;99.90;;;22.67;59.81;101349.91;5022680;27;98291;-48
2021/09/12 01:58:46;;;;;;;2.03;1.93;;;22.40;99.90;;;22.67;59.76;101355.28;5016195;27;99061;-47
2021/09/12 02:01:12;;;;;;;4.37;3.90;;;22.40;99.90;;;22.66;59.78;101358.94;5019558;27;108535;-50
2021/09/12 02:03:37;;;;;;;7.63;5.57;;;22.40;99.90;;;22.64;59.85;101360.91;5015125;27;101231;-53
2021/09/12 02:06:03;;;;;;;5.97;5.40;;;22.40;99.90;;;22.61;60.13;101361.13;5019023;27;98470;-46
2021/09/12 02:08:29;;;;;;;5.40;4.53;;;22.30;99.90;;;22.58;60.22;101360.50;5020825;27;97780;-48
2021/09/12 02:10:55;;;;;;;5.93;4.50;;;22.30;99.90;;;22.54;60.28;101366.09;5015699;27;98267;-49
2021/09/12 02:13:21;;;;;;;4.43;4.03;;;22.20;99.90;;;22.53;60.34;101363.53;5020901;27;97790;-45
2021/09/12 02:15:46;;;;;;;2.73;2.53;;;22.20;99.90;;;22.54;60.28;101365.25;5015709;27;99351;-51
2021/09/12 02:18:13;;;;;;;4.47;4.07;;;22.20;99.90;;;22.52;60.32;101364.50;5015624;27;102717;-50
2021/09/12 02:20:39;;;;;;;7.07;5.97;;;22.20;99.90;;;22.50;60.49;101363.75;5017691;27;100284;-48
2021/09/12 02:23:06;;;;;;;2.93;2.63;;;22.20;99.90;;;22.50;60.49;101358.38;5028600;27;104248;-48
2021/09/12 02:25:34;;;;;;;2.27;2.07;;;22.20;99.90;;;22.52;60.29;101367.19;5019593;27;100127;-50
2021/09/12 02:28:00;;;;;;;1.70;1.60;;;22.20;99.90;;;22.52;60.41;101361.81;5029727;27;98447;-50
2021/09/12 02:30:27;;;;;;;2.13;1.93;;;22.20;99.90;;;22.52;60.29;101368.03;5030557;27;99629;-45
2021/09/12 02:32:52;;;;;;;2.90;2.20;;;22.30;99.90;;;22.53;60.34;101360.84;5030337;27;98193;-50
2021/09/12 02:35:18;;;;;;;2.10;1.90;;;22.20;99.90;;;22.53;60.40;101352.78;5031628;27;96903;-47
2021/09/12 02:37:44;;;;;;;2.07;1.97;;;22.20;99.90;;;22.54;60.28;101354.47;5034092;27;97529;-46
2021/09/12 02:40:11;;;;;;;5.17;3.83;;;22.30;99.90;;;22.55;60.19;101356.19;5032900;27;102309;-49
2021/09/12 02:42:41;;;;;;;4.00;3.70;;;22.30;99.90;;;22.55;60.24;101356.19;5039345;27;100627;-51
2021/09/12 02:45:09;;;;;;;2.50;2.30;;;22.30;99.90;;;22.54;60.25;101362.56;5030624;27;98533;-50
2021/09/12 02:47:36;;;;;;;2.23;2.03;;;22.30;99.90;;;22.54;60.34;101362.56;5038752;27;97105;-45
2021/09/12 02:50:03;;;;;;;2.47;2.27;;;22.30;99.90;;;22.54;60.30;101359.88;5029231;27;104890;-49
2021/09/12 02:52:29;;;;;;;2.17;1.97;;;22.30;99.90;;;22.55;60.27;101361.56;5034435;27;97146;-49
2021/09/12 02:54:55;;;;;;;2.20;2.00;;;22.30;99.90;;;22.54;60.38;101359.88;5027529;27;97044;-50
2021/09/12 02:57:21;;;;;;;2.17;1.77;;;22.30;99.90;;;22.58;60.22;101360.50;5036024;27;97165;-47
2021/09/12 02:59:47;;;;;;;2.17;1.97;;;22.30;99.90;;;22.60;60.07;101364.78;5029410;27;104351;-48
2021/09/12 03:02:12;;;;;;;2.23;2.10;;;22.30;99.90;;;22.61;60.23;101363.81;5033372;27;99652;-45
2021/09/12 03:04:38;;;;;;;2.97;2.67;;;22.40;99.90;;;22.62;60.07;101370.06;5029891;27;97226;-54
2021/09/12 03:07:04;;;;;;;2.67;2.47;;;22.40;99.90;;;22.61;60.01;101369.19;5034534;27;97517;-49
2021/09/12 03:09:30;;;;;;;1.80;1.70;;;22.40;99.90;;;22.63;60.13;101369.94;5040474;27;99748;-46
2021/09/12 03:11:56;;;;;;;5.50;4.03;;;22.40;99.90;;;22.63;59.93;101369.09;5029366;27;100376;-45
2021/09/12 03:14:22;;;;;;;2.30;2.13;;;22.40;99.90;;;22.63;60.12;101364.56;5022157;27;97125;-49
2021/09/12 03:16:48;;;;;;;8.90;5.47;;;22.40;99.90;;;22.59;60.11;101373.84;5030589;27;99039;-52
2021/09/12 03:19:15;;;;;;;5.53;5.10;;;22.30;99.90;;;22.59;60.04;101368.47;5035059;27;97327;-49
2021/09/12 03:21:42;;;;;;;2.63;2.43;;;22.30;99.90;;;22.60;60.11;101372.00;5030147;27;96894;-51
2021/09/12 03:24:09;;;;;;;3.60;3.30;;;22.30;99.90;;;22.58;60.17;101374.81;5035956;27;102097;-50
2021/09/12 03:26:35;;;;;;;2.30;2.10;;;22.30;99.90;;;22.60;60.15;101369.31;5037831;27;96789;-45
2021/09/12 03:29:01;;;;;;;2.60;2.10;;;22.30;99.90;;;22.62;60.00;101370.91;5027733;27;109077;-48
2021/09/12 03:31:27;;;;;;;2.23;2.10;;;22.40;99.90;;;22.65;59.98;101368.00;5039647;27;99199;-49
2021/09/12 03:33:53;;;;;;;2.10;2.00;;;22.40;99.90;;;22.67;59.92;101366.03;5030788;27;96984;-50
2021/09/12 03:36:18;;;;;;;2.20;2.00;;;22.40;99.90;;;22.71;59.67;101366.66;5033378;27;97398;-47
2021/09/12 03:38:44;;;;;;;6.27;4.87;;;22.50;99.90;;;22.69;59.79;101369.47;5028887;27;100671;-50
2021/09/12 03:41:10;;;;;;;4.77;2.97;;;22.50;99.90;;;22.68;59.64;101367.75;5040587;27;99156;-48
2021/09/12 03:43:36;;;;;;;6.57;4.83;;;22.50;99.90;;;22.65;59.96;101373.38;5035180;27;98333;-47
2021/09/12 03:46:02;;;;;;;5.63;5.13;;;22.40;99.90;;;22.63;59.95;101375.31;5033334;27;97488;-48
2021/09/12 03:48:28;;;;;;;4.27;3.87;;;22.40;99.90;;;22.60;60.33;101370.19;5033680;27;98425;-47
2021/09/12 03:50:54;;;;;;;6.37;5.70;;;22.30;99.90;;;22.54;60.39;101363.41;5033001;27;99169;-46
2021/09/12 03:53:20;;;;;;;3.53;3.23;;;22.20;99.90;;;22.52;60.46;101361.81;5033278;27;96895;-48
2021/09/12 03:55:46;;;;;;;3.83;3.50;;;22.20;99.90;;;22.51;60.50;101360.09;5027406;27;97095;-49
2021/09/12 03:58:11;;;;;;;8.23;5.77;;;22.20;99.90;;;22.48;60.59;101363.03;5040965;27;97740;-48
2021/09/12 04:00:37;;;;;;;5.97;5.00;;;22.10;99.90;;;22.49;60.51;101367.44;5034434;27;106667;-55
2021/09/12 04:03:03;;;;;;;7.37;6.50;;;22.20;99.90;;;22.46;60.65;101367.66;5045851;27;97349;-49
2021/09/12 04:05:29;;;;;;;7.03;6.40;;;22.10;99.90;;;22.48;60.40;101365.72;5034289;27;97908;-48
2021/09/12 04:07:55;;;;;;;6.77;5.60;;;22.20;99.90;;;22.48;60.57;101368.41;5032130;27;97610;-50
2021/09/12 04:10:22;;;;;;;8.80;7.90;;;22.20;99.90;;;22.52;60.27;101367.19;5030629;27;98355;-47
2021/09/12 04:12:47;;;;;;;7.67;6.87;;;22.30;99.90;;;22.54;60.31;101374.16;5044548;27;103620;-46
2021/09/12 04:15:13;;;;;;;3.27;3.00;;;22.30;99.90;;;22.55;60.14;101366.94;5036624;27;98902;-52
2021/09/12 04:17:39;;;;;;;8.63;7.77;;;22.30;99.90;;;22.56;60.25;101374.03;5034170;27;108675;-49
2021/09/12 04:20:06;;;;;;;9.57;8.57;;;22.40;99.90;;;22.56;60.15;101364.16;5038910;27;98503;-48
2021/09/12 04:22:34;;;;;;;10.90;8.67;;;22.40;99.90;;;22.55;58.59;101373.19;5031823;27;98671;-49
2021/09/12 04:24:59;;;;;;;10.50;8.33;;;22.40;99.90;;;22.56;60.08;101374.03;5030500;27;98729;-46
2021/09/12 04:27:25;;;;;;;10.57;7.70;;;22.40;99.90;;;22.54;59.91;101370.63;5038419;27;96923;-47
2021/09/12 04:29:51;;;;;;;10.13;6.87;;;22.30;99.90;;;22.54;59.91;101365.25;5035684;27;97698;-48
2021/09/12 04:32:17;;;;;;;7.97;6.67;;;22.30;99.90;;;22.54;60.07;101362.56;5036103;27;97672;-46
2021/09/12 04:34:46;;;;;;;8.13;5.97;;;22.30;99.90;;;22.55;59.92;101366.94;5047372;27;97733;-47
2021/09/12 04:37:12;;;;;;;8.50;6.90;;;22.30;99.90;;;22.53;59.72;101374.28;5035669;27;97145;-45
2021/09/12 04:39:38;;;;;;;7.53;6.40;;;22.30;99.90;;;22.53;59.35;101374.28;5033963;27;99782;-56
2021/09/12 04:42:04;;;;;;;9.33;6.07;;;22.30;99.90;;;22.51;60.06;101381.59;5033328;27;97522;-46
2021/09/12 04:44:30;;;;;;;7.97;6.30;;;22.30;99.90;;;22.51;59.73;101373.53;5043836;27;97099;-53
2021/09/12 04:46:56;;;;;;;7.10;5.83;;;22.30;99.90;;;22.54;60.25;101376.00;5029299;27;97959;-47
2021/09/12 04:49:22;;;;;;;7.30;5.13;;;22.30;99.90;;;22.55;59.96;101373.19;5048481;27;98355;-47
2021/09/12 04:51:48;;;;;;;8.07;5.40;;;22.40;99.90;;;22.51;58.84;101376.22;5035119;27;98737;-50
2021/09/12 04:54:13;;;;;;;5.23;4.03;;;22.30;99.90;;;22.47;59.87;101374.75;5034254;27;99531;-48
2021/09/12 04:56:39;;;;;;;9.27;5.53;;;22.20;99.90;;;22.41;59.84;101380.56;5021323;27;108533;-48
2021/09/12 04:59:05;;;;;;;6.37;4.50;;;22.10;99.90;;;22.37;60.23;101384.44;5030245;27;99873;-50
2021/09/12 05:01:32;;;;;;;3.43;2.77;;;22.00;99.90;;;22.33;60.61;101382.97;5057561;27;97167;-48
2021/09/12 05:03:59;;;;;;;2.70;2.50;;;22.00;99.90;;;22.31;60.69;101379.53;5030878;27;97215;-50
2021/09/12 05:06:25;;;;;;;6.07;4.80;;;21.90;99.90;;;22.29;60.71;101381.50;5039501;27;100259;-48
2021/09/12 05:08:51;;;;;;;4.37;3.97;;;22.00;99.90;;;22.29;60.71;101386.88;5036402;27;96977;-51
2021/09/12 05:11:17;;;;;;;4.83;4.30;;;21.90;99.90;;;22.30;60.69;101383.19;5030489;27;98536;-48
2021/09/12 05:13:42;;;;;;;9.43;6.73;;;22.00;99.90;;;22.33;60.41;101388.34;5034697;27;97617;-45
2021/09/12 05:16:08;;;;;;;3.47;3.10;;;22.00;99.90;;;22.34;60.48;101392.75;5033227;27;104461;-48
2021/09/12 05:18:34;;;;;;;3.17;2.33;;;22.00;99.90;;;22.34;60.70;101395.44;5035036;27;99769;-48
2021/09/12 05:21:00;;;;;;;8.63;4.70;;;22.00;99.90;;;22.32;60.36;101403.63;5034083;27;97279;-48
2021/09/12 05:23:28;;;;;;;7.43;5.43;;;22.00;99.90;;;22.32;60.13;101398.25;5042390;27;97239;-48
2021/09/12 05:25:54;;;;;;;7.63;4.70;;;22.00;99.90;;;22.31;60.42;101406.41;5036046;27;98858;-46
2021/09/12 05:28:20;;;;;;;2.67;2.47;;;22.00;99.90;;;22.29;60.79;101403.84;5036802;27;99564;-50
2021/09/12 05:30:46;;;;;;;5.50;4.10;;;21.90;99.90;;;22.26;60.76;101412.97;5035968;27;97268;-48
2021/09/12 05:33:12;;;;;;;4.07;3.30;;;21.90;99.90;;;22.27;60.56;101416.50;5033802;27;97143;-47
2021/09/12 05:35:37;;;;;;;9.17;5.70;;;21.90;99.90;;;22.26;60.57;101409.41;5037391;27;98561;-53
2021/09/12 05:38:03;;;;;;;3.73;2.93;;;21.90;99.90;;;22.31;60.82;101417.16;5032013;27;101891;-48
2021/09/12 05:40:29;;;;;;;11.40;7.30;;;22.00;99.90;;;22.27;60.54;101417.38;5040591;27;97433;-49
2021/09/12 05:42:55;;;;;;;10.03;6.80;;;22.00;99.90;;;22.30;60.54;101420.81;5029677;27;96990;-49
2021/09/12 05:45:21;;;;;;;3.83;3.37;;;22.00;99.90;;;22.28;60.64;101418.25;5042021;27;100579;-47
2021/09/12 05:47:48;;;;;;;5.47;4.90;;;22.00;99.90;;;22.30;60.55;101418.13;5013175;27;98789;-47
2021/09/12 05:50:14;;;;;;;3.80;3.07;;;22.00;99.90;;;22.32;60.44;101418.88;5037446;27;97610;-50
2021/09/12 05:52:40;;;;;;;3.20;2.90;;;22.00;99.90;;;22.32;60.61;101424.25;5030355;27;98218;-50
2021/09/12 05:55:07;;;;;;;4.43;3.43;;;22.00;99.90;;;22.31;60.39;101412.66;5040240;27;100157;-45
2021/09/12 05:57:33;;;;;;;5.27;3.73;;;22.00;99.90;;;22.32;60.41;101429.63;5026225;27;98101;-47
2021/09/12 05:59:59;;;;;;;6.13;5.00;;;22.00;99.90;;;22.32;60.35;101418.88;5036659;27;98401;-50
2021/09/12 06:02:25;;;;;;;2.50;2.30;;;22.00;99.90;;;22.31;60.58;101419.84;5037981;27;96983;-47
2021/09/12 06:04:51;;;;;;;9.80;6.07;;;22.00;99.90;;;22.25;59.25;101424.69;5029286;27;99628;-47
2021/09/12 06:07:18;;;;;;;9.30;6.60;;;21.90;99.90;;;22.22;60.50;101430.28;5037123;27;97155;-47
2021/09/12 06:09:44;;;;;;;9.70;6.60;;;21.90;99.90;;;22.24;60.43;101432.84;5031494;27;97354;-49
2021/09/12 06:12:11;;;;;;;9.60;6.40;;;21.90;99.90;;;22.21;60.44;101433.94;5037887;27;99398;-49
2021/09/12 06:14:37;;;;;;;8.93;6.13;;;21.90;99.90;;;22.22;60.44;101430.28;5033911;27;98261;-47
2021/09/12 06:17:05;;;;;;;9.50;5.20;;;21.90;99.90;;;22.24;60.57;101436.41;5032543;27;101375;-46
2021/09/12 06:19:33;;;;;;;8.43;5.97;;;21.90;99.90;;;22.25;60.40;101435.44;5031503;27;97429;-52
2021/09/12 06:21:59;;;;;;;10.87;6.60;;;21.90;99.90;;;22.25;59.68;101438.13;5029587;27;97018;-46
2021/09/12 06:24:25;;;;;;;9.90;7.10;;;21.90;99.90;;;22.25;60.27;101443.50;5038665;27;100002;-51
2021/09/12 06:26:51;;;;;;;8.53;6.80;;;21.90;99.90;;;22.26;60.53;101442.53;5033227;27;97847;-51
2021/09/12 06:29:17;;;;;;;11.50;7.20;;;22.00;99.90;;;22.29;60.39;101440.63;5039367;27;97303;-50
2021/09/12 06:31:43;;;;;;;9.70;6.30;;;22.00;99.90;;;22.32;60.56;101443.94;5031571;27;97031;-45
2021/09/12 06:34:09;;;;;;;9.17;6.50;;;22.10;99.90;;;22.33;60.40;101445.66;5041025;27;97136;-47
2021/09/12 06:36:34;;;;;;;11.67;7.30;;;22.10;99.90;;;22.36;60.24;101444.56;5036912;27;98440;-51
2021/09/12 06:39:00;;;;;;;9.90;6.23;;;22.10;99.90;;;22.38;59.84;101446.16;5041179;27;99893;-49
2021/09/12 06:41:26;;;;;;;11.83;6.63;;;22.20;99.90;;;22.41;60.22;101445.94;5040676;27;96959;-46
2021/09/12 06:43:52;;;;;;;7.53;6.40;;;22.30;99.90;;;22.44;59.96;101450.25;5049618;27;98663;-48
2021/09/12 06:46:18;;;;;;;9.87;6.40;;;22.30;99.90;;;22.47;59.98;101447.31;5039340;27;105762;-48
2021/09/12 06:48:43;;;;;;;11.43;5.90;;;22.30;99.90;;;22.48;59.89;101449.91;5029627;27;97478;-48
2021/09/12 06:51:12;;;;;;;9.40;5.80;;;22.30;99.90;;;22.50;59.92;101455.16;5037124;27;97680;-47
2021/09/12 06:53:38;;;;;;;11.13;6.60;;;22.40;99.90;;;22.50;59.74;101455.16;5031753;27;98420;-54
2021/09/12 06:56:04;;;;;;;11.43;6.30;;;22.30;99.90;;;22.51;59.93;101454.19;5035259;27;102874;-48
2021/09/12 06:58:31;;;;;;;13.40;5.87;;;22.40;99.90;;;22.53;59.59;101449.56;5048101;27;97307;-46
2021/09/12 07:00:58;;;;;;;8.23;5.50;;;22.40;99.90;;;22.54;59.61;101452.13;5046440;27;97118;-47
2021/09/12 07:03:27;;;;;;;7.70;5.23;;;22.40;99.90;;;22.58;59.35;101452.78;5034130;27;97253;-45
2021/09/12 07:05:54;;;;;;;9.80;5.70;;;22.50;99.90;;;22.60;59.26;101455.34;5029773;27;97654;-45
2021/09/12 07:08:20;;;;;;;8.53;6.33;;;22.50;99.90;;;22.60;58.74;101456.22;5032515;27;97282;-46
2021/09/12 07:10:46;;;;;;;9.37;6.50;;;22.50;99.90;;;22.61;59.35;101463.31;5031590;27;97152;-47
2021/09/12 07:13:12;;;;;;;5.70;5.00;;;22.50;99.90;;;22.62;58.98;101453.41;5032758;27;97282;-48
2021/09/12 07:15:38;;;;;;;8.77;5.90;;;22.50;99.90;;;22.65;59.25;101454.03;5034878;27;113916;-50
2021/09/12 07:18:04;;;;;;;9.20;5.93;;;22.50;99.90;;;22.65;59.09;101448.66;5030618;27;98068;-47
2021/09/12 07:20:31;;;;;;;11.57;5.93;;;22.60;99.90;;;22.66;58.93;101445.00;5031064;27;97851;-50
2021/09/12 07:22:57;;;;;;;11.57;5.83;;;22.50;99.90;;;22.67;59.01;101444.03;5028042;27;99453;-46
2021/09/12 07:25:23;;;;;;;6.37;4.57;;;22.60;99.90;;;22.67;58.39;101452.09;5050330;27;100469;-47
2021/09/12 07:27:49;;;;;;;8.50;5.93;;;22.60;99.90;;;22.66;57.06;101455.75;5027154;27;97410;-45
2021/09/12 07:30:15;;;;;;;11.83;5.10;;;22.50;99.90;;;22.64;58.42;101452.31;5034368;27;97371;-50
2021/09/12 07:32:42;;;;;;;9.50;4.90;;;22.50;99.90;;;22.65;58.51;101454.03;5028466;27;96874;-47
2021/09/12 07:35:09;;;;;;;5.23;3.70;;;22.50;99.90;;;22.60;56.25;101456.22;5031206;27;103575;-45
2021/09/12 07:37:34;;;;;;;8.97;5.33;;;22.40;99.90;;;22.54;58.82;101456.66;5035657;27;97540;-45
2021/09/12 07:40:01;;;;;;;12.40;5.33;;;22.30;99.90;;;22.54;59.03;101456.66;5028920;27;97740;-47
2021/09/12 07:42:26;;;;;;;9.33;5.07;;;22.40;99.90;;;22.56;58.82;101460.06;5030919;27;98243;-45
2021/09/12 07:44:52;;;;;;;5.67;4.60;;;22.40;99.90;;;22.55;58.57;101461.03;5028827;27;96926;-50
2021/09/12 07:47:18;;;;;;;4.13;3.23;;;22.40;99.90;;;22.58;58.95;101458.16;5049398;27;97124;-52
2021/09/12 07:49:44;;;;;;;8.10;4.50;;;22.40;99.90;;;22.55;58.85;101452.97;5029215;27;97493;-48
2021/09/12 07:52:10;;;;;;;6.20;4.20;;;22.40;99.90;;;22.55;58.92;101455.66;5030211;27;97458;-47
2021/09/12 07:54:36;;;;;;;6.73;4.83;;;22.40;99.90;;;22.57;58.66;101461.81;5037246;27;97191;-45
2021/09/12 07:57:02;;;;;;;9.13;4.10;;;22.40;99.90;;;22.58;58.79;101465.38;5033112;27;97480;-49
2021/09/12 07:59:28;;;;;;;6.83;4.57;;;22.40;99.90;;;22.56;58.87;101462.75;5033237;27;97329;-47
2021/09/12 08:01:57;;;;;;;9.90;4.63;;;22.40;99.90;;;22.57;58.38;101472.56;5028640;27;97557;-46
2021/09/12 08:04:23;;;;;;;6.57;4.97;;;22.50;99.90;;;22.58;58.62;101476.97;5033372;27;103671;-51
2021/09/12 08:06:49;;;;;;;8.03;4.13;;;22.50;99.90;;;22.60;58.49;101469.66;5029175;27;98792;-48
2021/09/12 08:09:15;;;;;;;8.83;4.13;;;22.50;99.90;;;22.61;58.36;101470.50;5032543;27;110334;-52
2021/09/12 08:11:41;;;;;;;6.57;3.40;;;22.50;99.90;;;22.61;58.31;101473.22;5024393;27;97817;-48
2021/09/12 08:14:07;;;;;;;7.53;3.57;;;22.50;99.90;;;22.59;58.57;101478.69;5036456;27;105253;-48
2021/09/12 08:16:33;;;;;;;6.07;2.70;;;22.50;99.90;;;22.57;57.39;101475.25;5033633;27;97892;-50
2021/09/12 08:18:59;;;;;;;6.03;3.13;;;22.50;99.90;;;22.54;57.96;101467.41;5026666;27;97286;-47
2021/09/12 08:21:25;;;;;;;7.13;3.50;;;22.50;99.90;;;22.55;58.51;101469.13;5035724;27;97687;-46
2021/09/12 08:23:51;;;;;;;7.60;3.53;;;22.50;99.90;;;22.56;58.25;101473.53;5042894;27;106581;-49
2021/09/12 08:26:17;;;;;;;5.13;3.10;;;22.50;99.90;;;22.58;58.32;101479.66;5034916;27;97014;-47
2021/09/12 08:28:43;;;;;;;7.30;3.60;;;22.50;99.90;;;22.58;58.34;101471.59;5023186;27;97342;-46
2021/09/12 08:31:09;;;;;;;7.23;3.20;;;22.50;99.90;;;22.59;58.41;101481.38;5045569;27;101574;-49
2021/09/12 08:33:35;;;;;;;7.30;3.40;;;22.60;99.90;;;22.58;58.07;101479.66;5030611;27;99469;-45
2021/09/12 08:36:01;;;;;;;4.60;3.07;;;22.50;99.90;;;22.59;58.59;101481.38;5028567;27;96935;-50
2021/09/12 08:38:26;;;;;;;6.70;3.43;;;22.60;99.90;;;22.60;58.06;101485.78;5028704;27;97360;-50
2021/09/12 08:40:58;;;;;;;7.17;3.30;;;22.60;99.90;;;22.62;57.92;101485.69;5024090;27;96863;-48
2021/09/12 08:43:27;;;;;;;5.53;3.67;;;22.60;99.90;;;22.62;57.99;101481.16;5030354;27;97864;-47
2021/09/12 08:45:54;;;;;;;7.63;3.70;;;22.60;99.90;;;22.62;57.77;101485.69;5026910;27;102655;-45
2021/09/12 08:48:21;;;;;;;6.00;3.07;;;22.50;99.90;;;22.62;57.91;101486.53;5050371;27;97143;-47
2021/09/12 08:50:46;;;;;;;6.03;3.13;;;22.50;99.90;;;22.60;57.65;101485.78;5028647;27;97714;-46
2021/09/12 08:53:12;;;;;;;5.90;3.63;;;22.50;99.90;;;22.58;56.15;101484.19;5032284;27;98058;-49
2021/09/12 08:55:38;;;;;;;8.37;3.80;;;22.50;99.90;;;22.59;57.91;101485.91;5029508;27;98876;-56
2021/09/12 08:58:05;;;;;;;7.30;3.90;;;22.50;99.90;;;22.61;57.58;101495.56;5030210;27;110332;-48
2021/09/12 09:00:31;;;;;;;8.73;3.80;;;22.50;99.90;;;22.61;57.43;101494.72;5011045;27;97835;-45
2021/09/12 09:03:03;;;;;;;6.67;3.30;;;22.50;99.90;;;22.57;53.96;101488.72;5028675;27;98810;-45
2021/09/12 09:05:32;;;;;;;8.13;3.90;;;22.40;99.90;;;22.53;58.11;101487.19;5028934;27;96866;-50
2021/09/12 09:08:06;;;;;;;5.57;3.27;;;22.30;99.90;;;22.48;57.40;101484.84;5025872;27;97269;-48
2021/09/12 09:10:48;;;;;;;8.80;3.67;;;22.30;99.90;;;22.49;58.30;101483.03;5047705;27;97617;-48
2021/09/12 09:13:36;;;;;;;8.23;3.17;;;22.30;99.90;;;22.50;57.70;101492.78;5026372;27;102276;-47
2021/09/12 09:16:08;;;;;;;8.80;3.67;;;22.30;99.90;;;22.50;58.16;101488.28;5032542;27;96873;-49
2021/09/12 09:18:42;;;;;;;5.53;2.90;;;22.40;99.90;;;22.52;57.81;101482.78;5022456;27;100605;-49
2021/09/12 09:21:28;;;;;;;7.97;3.60;;;22.40;99.90;;;22.57;57.64;101486.03;5031847;27;100551;-46
2021/09/12 09:24:16;;;;;;;6.80;3.07;;;22.50;99.90;;;22.59;57.76;101485.91;5010867;27;98716;-50
2021/09/12 09:26:46;;;;;;;5.33;3.13;;;22.50;99.90;;;22.57;57.28;101483.34;5013136;27;98536;-49
2021/09/12 09:29:13;;;;;;;7.30;2.67;;;22.50;99.90;;;22.57;57.03;101483.34;5023120;27;98757;-49
2021/09/12 09:31:41;;;;;;;7.77;2.80;;;22.50;99.90;;;22.62;57.43;101485.69;5021500;27;97865;-52
2021/09/12 09:34:18;;;;;;;5.20;2.77;;;22.50;99.90;;;22.66;57.26;101490.72;5032121;27;101862;-46
2021/09/12 09:36:46;;;;;;;6.33;3.17;;;22.60;99.90;;;22.64;55.44;101484.59;5019463;27;98258;-48
2021/09/12 09:39:12;;;;;;;4.77;2.77;;;22.60;99.90;;;22.65;57.03;101480.91;5019828;27;98376;-48
2021/09/12 09:41:39;;;;;;;6.07;2.43;;;22.60;99.90;;;22.67;56.76;101488.88;5037837;27;98151;-53
2021/09/12 09:44:12;;;;;;;7.37;3.00;;;22.60;99.90;;;22.63;56.25;101482.88;5017737;27;103509;-50
2021/09/12 09:46:43;;;;;;;6.57;3.23;;;22.60;99.90;;;22.64;56.08;101489.97;5019788;27;98379;-51
2021/09/12 09:49:25;;;;;;;3.37;2.57;;;22.60;99.90;;;22.67;57.63;101478.97;5012824;27;98546;-48
2021/09/12 09:51:57;;;;;;;6.37;3.00;;;22.60;99.90;;;22.65;57.15;101486.31;5014254;27;97163;-47
2021/09/12 09:54:26;;;;;;;5.70;3.20;;;22.60;99.90;;;22.67;56.84;101483.50;5013473;27;99386;-49
2021/09/12 09:56:53;;;;;;;7.17;3.10;;;22.60;99.90;;;22.69;57.31;101485.09;5017706;27;98708;-47
2021/09/12 09:59:22;;;;;;;4.93;3.30;;;22.60;99.90;;;22.72;54.71;101484.91;5016214;27;99869;-46
2021/09/12 10:01:51;;;;;;;5.73;3.00;;;22.60;99.90;;;22.71;56.66;101464.34;4995839;27;99241;-47
2021/09/12 10:04:19;;;;;;;5.67;2.93;;;22.60;99.90;;;22.70;55.29;101473.38;5018934;27;96959;-51
2021/09/12 10:06:46;;;;;;;2.97;2.47;;;22.60;99.90;;;22.68;56.48;101469.06;5013202;27;99478;-47
2021/09/12 10:09:15;;;;;;;4.67;2.80;;;22.60;99.90;;;22.72;56.29;101466.06;5018433;27;97379;-48